createdAt,value
2019-03-25T00:01:53.403Z,98306.73
2019-03-25T00:04:23.437Z,98294.62
2019-03-25T00:06:53.411Z,98309.22
2019-03-25T00:09:23.673Z,98316.21
2019-03-25T00:11:54.169Z,98316.21
2019-03-25T00:14:24.465Z,98309.56
2019-03-25T00:16:54.444Z,98309.84
2019-03-25T00:19:24.400Z,98297.86
2019-03-25T00:21:54.480Z,98305.98
2019-03-25T00:24:24.527Z,98296.75
2019-03-25T00:26:54.706Z,98296.75
2019-03-25T00:29:25.237Z,98285.96
2019-03-25T00:31:55.278Z,98297.80
2019-03-25T00:34:25.312Z,98297.80
2019-03-25T00:36:55.336Z,98291.98
2019-03-25T00:39:25.490Z,98291.98
2019-03-25T00:41:55.671Z,98280.45
2019-03-25T00:44:25.595Z,98278.31
2019-03-25T00:46:55.976Z,98279.16
2019-03-25T00:49:26.207Z,98272.52
2019-03-25T00:51:56.116Z,98269.25
2019-03-25T00:54:26.232Z,98268.98
2019-03-25T00:56:56.167Z,98268.98
2019-03-25T00:59:26.305Z,98271.05
2019-03-25T01:01:56.417Z,98271.05
2019-03-25T01:04:26.457Z,98269.29
2019-03-25T01:06:56.647Z,98262.05
2019-03-25T01:09:26.707Z,98251.55
2019-03-25T01:11:56.776Z,98251.55
2019-03-25T01:14:26.890Z,98254.55
2019-03-25T01:16:56.848Z,98254.35
2019-03-25T01:19:27.024Z,98254.35
2019-03-25T01:21:57.090Z,98247.27
2019-03-25T01:24:27.280Z,98246.29
2019-03-25T01:26:57.319Z,98241.77
2019-03-25T01:29:27.328Z,98246.29
2019-03-25T01:31:57.652Z,98248.74
2019-03-25T01:34:27.756Z,98248.74
2019-03-25T01:36:57.772Z,98238.33
2019-03-25T01:39:27.805Z,98238.33
2019-03-25T01:41:57.831Z,98240.73
2019-03-25T01:44:27.856Z,98240.73
2019-03-25T01:46:57.856Z,98233.80
2019-03-25T01:49:27.886Z,98233.80
2019-03-25T01:51:57.996Z,98230.85
2019-03-25T01:54:27.948Z,98232.20
2019-03-25T01:56:58.016Z,98235.42
2019-03-25T01:59:27.930Z,98235.42
2019-03-25T02:01:57.917Z,98227.67
2019-03-25T02:04:27.941Z,98227.14
2019-03-25T02:06:59.551Z,98233.30
2019-03-25T02:09:29.466Z,98231.95
2019-03-25T02:11:59.819Z,98230.38
2019-03-25T02:14:29.896Z,98225.03
2019-03-25T02:16:59.955Z,98224.22
2019-03-25T02:19:29.972Z,98226.92
2019-03-25T02:21:59.918Z,98234.69
2019-03-25T02:24:29.964Z,98228.52
2019-03-25T02:27:00.188Z,98229.06
2019-03-25T02:29:30.292Z,98220.49
2019-03-25T02:32:00.203Z,98214.57
2019-03-25T02:34:30.163Z,98212.19
2019-03-25T02:37:00.238Z,98218.08
2019-03-25T02:39:30.294Z,98212.42
2019-03-25T02:42:00.297Z,98217.81
2019-03-25T02:44:30.362Z,98219.66
2019-03-25T02:47:00.320Z,98205.48
2019-03-25T02:49:30.251Z,98213.22
2019-03-25T02:52:00.266Z,98206.02
2019-03-25T02:54:30.376Z,98208.69
2019-03-25T02:57:00.416Z,98207.60
2019-03-25T02:59:30.349Z,98206.78
2019-03-25T03:02:00.358Z,98211.34
2019-03-25T03:04:30.519Z,98212.67
2019-03-25T03:07:00.482Z,98213.22
2019-03-25T03:09:30.496Z,98212.94
2019-03-25T03:12:00.723Z,98214.79
2019-03-25T03:14:30.655Z,98211.63
2019-03-25T03:17:00.666Z,98211.33
2019-03-25T03:19:30.908Z,98209.47
2019-03-25T03:22:00.942Z,98207.58
2019-03-25T03:24:30.898Z,98205.69
2019-03-25T03:27:01.037Z,98211.07
2019-03-25T03:29:31.138Z,98200.33
2019-03-25T03:32:01.206Z,98208.13
2019-03-25T03:34:31.375Z,98205.44
2019-03-25T03:37:01.453Z,98200.59
2019-03-25T03:39:31.646Z,98197.66
2019-03-25T03:42:02.075Z,98199.80
2019-03-25T03:44:32.375Z,98201.11
2019-03-25T03:47:02.789Z,98200.31
2019-03-25T03:49:32.727Z,98197.03
2019-03-25T03:52:02.974Z,98191.72
2019-03-25T03:54:33.523Z,98196.50
2019-03-25T03:57:03.843Z,98197.59
2019-03-25T03:59:34.126Z,98191.70
2019-03-25T04:02:04.150Z,98190.84
2019-03-25T04:04:34.159Z,98181.47
2019-03-25T04:07:04.124Z,98191.33
2019-03-25T04:09:34.085Z,98195.59
2019-03-25T04:12:04.561Z,98195.67
2019-03-25T04:14:34.563Z,98196.13
2019-03-25T04:17:04.524Z,98201.47
2019-03-25T04:19:34.519Z,98199.99
2019-03-25T04:22:04.501Z,98204.54
2019-03-25T04:24:34.584Z,98197.53
2019-03-25T04:27:05.303Z,98199.14
2019-03-25T04:29:35.251Z,98203.19
2019-03-25T04:32:06.279Z,98205.17
2019-03-25T04:34:36.488Z,98212.39
2019-03-25T04:37:06.614Z,98211.58
2019-03-25T04:39:36.567Z,98213.34
2019-03-25T04:42:06.553Z,98211.64
2019-03-25T04:44:36.505Z,98218.02
2019-03-25T04:47:06.636Z,98212.34
2019-03-25T04:49:36.688Z,98214.31
2019-03-25T04:52:06.851Z,98218.77
2019-03-25T04:54:36.957Z,98223.47
2019-03-25T04:57:07.015Z,98225.55
2019-03-25T04:59:37.075Z,98229.68
2019-03-25T05:02:07.128Z,98224.87
2019-03-25T05:04:37.221Z,98230.70
2019-03-25T05:07:07.256Z,98229.34
2019-03-25T05:09:37.262Z,98226.42
2019-03-25T05:12:07.212Z,98230.41
2019-03-25T05:14:37.242Z,98232.22
2019-03-25T05:17:07.292Z,98228.49
2019-03-25T05:19:37.265Z,98235.56
2019-03-25T05:22:07.301Z,98229.89
2019-03-25T05:24:37.894Z,98228.47
2019-03-25T05:27:08.192Z,98230.72
2019-03-25T05:29:38.252Z,98216.84
2019-03-25T05:32:08.171Z,98221.92
2019-03-25T05:34:38.284Z,98212.78
2019-03-25T05:37:08.487Z,98219.45
2019-03-25T05:39:38.516Z,98213.37
2019-03-25T05:42:08.550Z,98210.95
2019-03-25T05:44:38.934Z,98212.78
2019-03-25T05:47:08.840Z,98216.97
2019-03-25T05:49:38.772Z,98219.16
2019-03-25T05:52:08.825Z,98218.63
2019-03-25T05:54:38.805Z,98216.04
2019-03-25T05:57:08.916Z,98216.83
2019-03-25T05:59:39.039Z,98223.46
2019-03-25T06:02:09.199Z,98215.78
2019-03-25T06:04:39.131Z,98215.17
2019-03-25T06:07:09.497Z,98215.98
2019-03-25T06:09:39.527Z,98205.23
2019-03-25T06:12:09.757Z,98200.89
2019-03-25T06:14:40.129Z,98197.16
2019-03-25T06:17:10.097Z,98194.06
2019-03-25T06:19:40.179Z,98201.08
2019-03-25T06:22:10.203Z,98194.05
2019-03-25T06:24:40.281Z,98197.88
2019-03-25T06:27:14.502Z,98198.62
2019-03-25T06:29:41.945Z,98196.48
2019-03-25T06:32:12.130Z,98201.36
2019-03-25T06:34:42.095Z,98205.09
2019-03-25T06:37:12.173Z,98197.66
2019-03-25T06:39:42.101Z,98197.72
2019-03-25T06:42:12.313Z,98198.47
2019-03-25T06:44:42.468Z,98201.20
2019-03-25T06:47:12.546Z,98199.82
2019-03-25T06:49:42.508Z,98199.92
2019-03-25T06:52:12.498Z,98199.62
2019-03-25T06:54:42.639Z,98194.00
2019-03-25T06:57:12.751Z,98202.66
2019-03-25T06:59:42.908Z,98198.48
2019-03-25T07:02:13.072Z,98193.98
2019-03-25T07:04:42.994Z,98189.97
2019-03-25T07:07:13.228Z,98181.59
2019-03-25T07:09:43.162Z,98171.63
2019-03-25T07:12:13.469Z,98178.95
2019-03-25T07:14:43.660Z,98159.89
2019-03-25T07:17:13.666Z,98162.03
2019-03-25T07:19:43.813Z,98172.00
2019-03-25T07:22:13.824Z,98178.69
2019-03-25T07:24:43.746Z,98169.65
2019-03-25T07:27:13.850Z,98180.06
2019-03-25T07:29:43.807Z,98173.37
2019-03-25T07:32:13.786Z,98176.07
2019-03-25T07:34:43.726Z,98169.16
2019-03-25T07:37:13.721Z,98172.95
2019-03-25T07:39:43.676Z,98180.73
2019-03-25T07:42:13.725Z,98172.19
2019-03-25T07:44:43.774Z,98174.09
2019-03-25T07:47:13.750Z,98173.02
2019-03-25T07:49:43.808Z,98166.57
2019-03-25T07:52:14.176Z,98162.03
2019-03-25T07:54:44.189Z,98160.91
2019-03-25T07:57:14.078Z,98154.69
2019-03-25T07:59:44.133Z,98154.22
2019-03-25T08:02:15.338Z,98142.13
2019-03-25T08:04:45.368Z,98143.20
2019-03-25T08:07:15.904Z,98150.45
2019-03-25T08:09:45.894Z,98142.16
2019-03-25T08:12:16.040Z,98154.22
2019-03-25T08:14:46.162Z,98145.07
2019-03-25T08:17:16.267Z,98141.34
2019-03-25T08:19:46.226Z,98150.19
2019-03-25T08:22:16.305Z,98151.83
2019-03-25T08:24:46.208Z,98140.02
2019-03-25T08:27:16.149Z,98138.41
2019-03-25T08:29:46.059Z,98141.91
2019-03-25T08:32:16.803Z,98144.05
2019-03-25T08:34:47.907Z,98150.75
2019-03-25T08:37:17.830Z,98151.30
2019-03-25T08:39:47.758Z,98161.22
2019-03-25T08:42:18.009Z,98154.23
2019-03-25T08:44:48.047Z,98172.21
2019-03-25T08:47:18.540Z,98169.25
2019-03-25T08:49:48.511Z,98174.88
2019-03-25T08:52:18.579Z,98167.64
2019-03-25T08:54:48.564Z,98166.57
2019-03-25T08:57:18.586Z,98177.02
2019-03-25T08:59:48.618Z,98179.19
2019-03-25T09:02:19.842Z,98178.64
2019-03-25T09:04:49.897Z,98196.05
2019-03-25T09:07:19.805Z,98202.98
2019-03-25T09:09:49.843Z,98197.34
2019-03-25T09:12:19.835Z,98204.65
2019-03-25T09:14:49.871Z,98208.10
2019-03-25T09:17:19.958Z,98200.59
2019-03-25T09:19:50.185Z,98190.40
2019-03-25T09:22:20.115Z,98196.28
2019-03-25T09:24:50.043Z,98202.19
2019-03-25T09:27:19.981Z,98204.91
2019-03-25T09:29:50.146Z,98197.40
2019-03-25T09:32:20.179Z,98184.27
2019-03-25T09:34:50.195Z,98184.02
2019-03-25T09:37:21.055Z,98182.41
2019-03-25T09:39:51.145Z,98183.74
2019-03-25T09:42:21.471Z,98193.13
2019-03-25T09:44:51.513Z,98186.69
2019-03-25T09:47:21.750Z,98185.62
2019-03-25T09:49:51.810Z,98187.77
2019-03-25T09:52:21.951Z,98178.65
2019-03-25T09:54:52.127Z,98177.55
2019-03-25T09:57:22.193Z,98180.77
2019-03-25T09:59:52.223Z,98183.75
2019-03-25T10:02:22.163Z,98182.11
2019-03-25T10:04:52.341Z,98187.20
2019-03-25T10:07:25.153Z,98185.84
2019-03-25T10:09:55.165Z,98198.95
2019-03-25T10:12:25.286Z,98188.51
2019-03-25T10:14:55.233Z,98186.34
2019-03-25T10:17:25.329Z,98189.33
2019-03-25T10:19:55.249Z,98185.81
2019-03-25T10:22:25.366Z,98199.42
2019-03-25T10:24:55.489Z,98183.64
2019-03-25T10:27:25.492Z,98191.39
2019-03-25T10:29:55.544Z,98194.57
2019-03-25T10:32:25.526Z,98192.94
2019-03-25T10:34:55.563Z,98203.28
2019-03-25T10:37:26.091Z,98199.06
2019-03-25T10:39:57.113Z,98188.17
2019-03-25T10:42:27.385Z,98177.52
2019-03-25T10:44:57.441Z,98174.09
2019-03-25T10:47:27.485Z,98169.18
2019-03-25T10:49:57.596Z,98166.38
2019-03-25T10:52:27.559Z,98157.33
2019-03-25T10:57:27.566Z,98154.73
2019-03-25T10:59:57.548Z,98153.09
2019-03-25T11:02:27.920Z,98142.15
2019-03-25T11:04:57.866Z,98138.16
2019-03-25T11:07:29.457Z,98139.50
2019-03-25T11:09:59.589Z,98149.41
2019-03-25T11:12:29.517Z,98152.11
2019-03-25T11:14:59.691Z,98149.69
2019-03-25T11:17:29.758Z,98153.44
2019-03-25T11:19:59.708Z,98152.63
2019-03-25T11:22:30.212Z,98170.34
2019-03-25T11:25:00.333Z,98167.39
2019-03-25T11:27:30.427Z,98162.54
2019-03-25T11:30:00.370Z,98165.94
2019-03-25T11:32:30.383Z,98156.02
2019-03-25T11:35:00.474Z,98166.02
2019-03-25T11:37:30.778Z,98174.91
2019-03-25T11:40:00.695Z,98180.50
2019-03-25T11:42:30.813Z,98172.44
2019-03-25T11:45:00.763Z,98173.00
2019-03-25T11:47:30.857Z,98166.30
2019-03-25T11:50:00.830Z,98169.54
2019-03-25T11:52:30.888Z,98165.77
2019-03-25T11:55:00.951Z,98161.64
2019-03-25T11:57:31.430Z,98158.67
2019-03-25T12:00:01.557Z,98168.68
2019-03-25T12:02:31.525Z,98157.39
2019-03-25T12:05:11.758Z,98160.89
2019-03-25T12:07:42.166Z,98145.47
2019-03-25T12:10:12.512Z,98148.30
2019-03-25T12:12:42.692Z,98154.02
2019-03-25T12:15:12.921Z,98129.52
2019-03-25T12:17:42.861Z,98119.20
2019-03-25T12:20:13.319Z,98119.20
2019-03-25T12:22:43.229Z,98178.60
2019-03-25T12:25:13.218Z,98234.53
2019-03-25T12:27:43.158Z,98218.36
2019-03-25T12:30:13.567Z,98230.39
2019-03-25T12:32:43.968Z,98250.17
2019-03-25T12:35:14.100Z,98239.58
2019-03-25T12:37:44.101Z,98229.66
2019-03-25T12:40:14.108Z,98267.29
2019-03-25T12:42:44.092Z,98241.70
2019-03-25T12:45:15.024Z,98237.81
2019-03-25T12:47:45.025Z,98217.70
2019-03-25T12:50:15.816Z,98209.54
2019-03-25T12:52:46.934Z,98202.37
2019-03-25T12:55:17.110Z,98179.86
2019-03-25T12:57:47.046Z,98157.53
2019-03-25T13:00:20.996Z,98150.60
2019-03-25T13:02:51.161Z,98141.39
2019-03-25T13:05:21.187Z,98147.13
2019-03-25T13:07:51.187Z,98137.49
2019-03-25T13:10:21.235Z,98124.87
2019-03-25T13:12:51.239Z,98112.22
2019-03-25T13:15:21.387Z,98112.22
2019-03-25T13:17:51.294Z,98115.84
2019-03-25T13:20:22.775Z,98116.00
2019-03-25T13:22:52.969Z,98110.37
2019-03-25T13:25:22.993Z,98109.03
2019-03-25T13:27:53.013Z,98118.34
2019-03-25T13:30:23.065Z,98136.81
2019-03-25T13:32:52.984Z,98150.42
2019-03-25T13:35:23.011Z,98152.59
2019-03-25T13:37:53.136Z,98169.65
2019-03-25T13:40:23.568Z,98154.53
2019-03-25T13:42:53.590Z,98151.66
2019-03-25T13:45:23.720Z,98146.85
2019-03-25T13:47:53.866Z,98138.45
2019-03-25T13:50:24.317Z,98137.36
2019-03-25T13:52:54.434Z,98128.88
2019-03-25T13:55:26.703Z,98131.06
2019-03-25T13:57:56.369Z,98120.37
2019-03-25T14:00:44.470Z,98113.55
2019-03-25T14:03:14.383Z,98106.06
2019-03-25T14:05:44.853Z,98110.13
2019-03-25T14:08:15.066Z,98106.04
2019-03-25T14:10:45.098Z,98107.83
2019-03-25T14:13:15.069Z,98105.47
2019-03-25T14:15:45.017Z,98109.88
2019-03-25T14:18:15.193Z,98109.09
2019-03-25T14:20:45.120Z,98124.11
2019-03-25T14:23:15.304Z,98138.22
2019-03-25T14:25:45.932Z,98154.21
2019-03-25T14:28:17.368Z,98174.08
2019-03-25T14:30:48.247Z,98183.98
2019-03-25T14:33:18.316Z,98163.86
2019-03-25T14:35:48.575Z,98198.56
2019-03-25T14:38:18.721Z,98194.14
2019-03-25T14:40:48.635Z,98200.87
2019-03-25T14:43:21.644Z,98208.42
2019-03-25T14:45:52.415Z,98202.75
2019-03-25T14:48:23.339Z,98203.84
2019-03-25T14:50:53.874Z,98209.05
2019-03-25T14:53:24.307Z,98192.34
2019-03-25T14:55:54.236Z,98191.67
2019-03-25T14:58:24.150Z,98192.03
2019-03-25T15:00:54.280Z,98191.76
2019-03-25T15:03:24.186Z,98195.53
2019-03-25T15:05:54.311Z,98180.78
2019-03-25T15:08:24.434Z,98177.31
2019-03-25T15:10:54.468Z,98197.11
2019-03-25T15:13:24.663Z,98195.25
2019-03-25T15:15:54.766Z,98201.14
2019-03-25T15:18:24.727Z,98193.08
2019-03-25T15:20:54.796Z,98199.75
2019-03-25T15:23:24.751Z,98203.55
2019-03-25T15:25:55.030Z,98191.27
2019-03-25T15:28:25.408Z,98179.45
2019-03-25T15:30:55.393Z,98180.80
2019-03-25T15:33:25.370Z,98184.75
2019-03-25T15:35:55.571Z,98190.95
2019-03-25T15:38:26.458Z,98186.69
2019-03-25T15:40:56.429Z,98197.42
2019-03-25T15:43:26.680Z,98201.16
2019-03-25T15:45:57.021Z,98197.11
2019-03-25T15:48:27.477Z,98188.83
2019-03-25T15:50:57.431Z,98205.41
2019-03-25T15:53:28.788Z,98201.63
2019-03-25T15:55:58.835Z,98219.59
2019-03-25T15:58:28.870Z,98221.22
2019-03-25T16:00:58.860Z,98226.06
2019-03-25T16:03:28.891Z,98234.29
2019-03-25T16:05:59.411Z,98229.73
2019-03-25T16:08:29.414Z,98222.27
2019-03-25T16:10:59.470Z,98226.02
2019-03-25T16:13:29.582Z,98222.88
2019-03-25T16:15:59.702Z,98225.30
2019-03-25T16:18:41.140Z,98239.16
2019-03-25T16:21:11.783Z,98232.17
2019-03-25T16:23:41.840Z,98237.00
2019-03-25T16:26:11.768Z,98251.73
2019-03-25T16:28:41.699Z,98233.73
2019-03-25T16:31:11.821Z,98238.87
2019-03-25T16:33:41.774Z,98244.23
2019-03-25T16:36:11.885Z,98252.27
2019-03-25T16:38:41.862Z,98248.00
2019-03-25T16:41:12.012Z,98259.03
2019-03-25T16:43:42.053Z,98258.98
2019-03-25T16:46:12.116Z,98253.63
2019-03-25T16:48:42.078Z,98262.95
2019-03-25T16:51:12.065Z,98270.75
2019-03-25T16:53:42.405Z,98278.28
2019-03-25T16:56:12.504Z,98288.44
2019-03-25T16:58:42.578Z,98288.09
2019-03-25T17:01:12.496Z,98293.45
2019-03-25T17:03:42.713Z,98301.56
2019-03-25T17:06:12.898Z,98283.94
2019-03-25T17:08:42.985Z,98290.41
2019-03-25T17:11:13.109Z,98289.31
2019-03-25T17:13:43.109Z,98297.09
2019-03-25T17:16:13.258Z,98293.58
2019-03-25T17:18:43.350Z,98306.38
2019-03-25T17:21:13.289Z,98305.78
2019-03-25T17:23:43.301Z,98311.20
2019-03-25T17:26:13.421Z,98321.08
2019-03-25T17:28:43.367Z,98315.95
2019-03-25T17:31:20.818Z,98320.73
2019-03-25T17:33:45.513Z,98325.25
2019-03-25T17:36:15.433Z,98325.09
2019-03-25T17:38:45.581Z,98322.92
2019-03-25T17:41:15.669Z,98335.55
2019-03-25T17:43:45.729Z,98344.12
2019-03-25T17:46:16.032Z,98337.15
2019-03-25T17:48:46.230Z,98341.41
2019-03-25T17:51:18.132Z,98352.60
2019-03-25T17:53:48.047Z,98355.64
2019-03-25T17:56:18.152Z,98359.88
2019-03-25T17:58:48.313Z,98361.26
2019-03-25T18:01:19.495Z,98366.92
2019-03-25T18:03:49.592Z,98365.86
2019-03-25T18:06:19.827Z,98363.63
2019-03-25T18:08:49.772Z,98371.52
2019-03-25T18:11:19.765Z,98373.73
2019-03-25T18:13:50.007Z,98366.73
2019-03-25T18:16:20.004Z,98374.27
2019-03-25T18:18:50.036Z,98376.11
2019-03-25T18:21:20.079Z,98377.77
2019-03-25T18:23:50.102Z,98382.78
2019-03-25T18:26:20.653Z,98390.55
2019-03-25T18:28:50.606Z,98403.18
2019-03-25T18:31:20.655Z,98401.94
2019-03-25T18:33:50.598Z,98403.81
2019-03-25T18:36:20.611Z,98417.25
2019-03-25T18:38:50.690Z,98420.47
2019-03-25T18:41:20.718Z,98419.39
2019-03-25T18:43:50.724Z,98425.16
2019-03-25T18:46:20.834Z,98425.15
2019-03-25T18:48:50.858Z,98429.64
2019-03-25T18:51:20.901Z,98427.77
2019-03-25T18:53:50.960Z,98443.02
2019-03-25T18:56:21.003Z,98436.19
2019-03-25T18:58:51.144Z,98445.29
2019-03-25T19:01:21.361Z,98442.88
2019-03-25T19:03:51.420Z,98454.27
2019-03-25T19:06:21.400Z,98452.45
2019-03-25T19:08:52.006Z,98453.70
2019-03-25T19:11:30.736Z,98460.97
2019-03-25T19:13:54.654Z,98470.05
2019-03-25T19:16:24.778Z,98471.64
2019-03-25T19:18:55.000Z,98481.88
2019-03-25T19:21:24.967Z,98476.66
2019-03-25T19:23:54.858Z,98478.53
2019-03-25T19:26:24.963Z,98479.06
2019-03-25T19:28:54.891Z,98482.22
2019-03-25T19:31:24.978Z,98492.27
2019-03-25T19:33:55.123Z,98494.80
2019-03-25T19:36:25.419Z,98503.97
2019-03-25T19:38:55.590Z,98512.06
2019-03-25T19:41:32.212Z,98511.99
2019-03-25T19:43:57.233Z,98514.45
2019-03-25T19:46:27.232Z,98520.27
2019-03-25T19:48:57.199Z,98533.14
2019-03-25T19:51:27.216Z,98538.20
2019-03-25T19:53:57.295Z,98535.17
2019-03-25T19:56:27.241Z,98542.42
2019-03-25T19:58:57.240Z,98553.28
2019-03-25T20:01:27.237Z,98556.38
2019-03-25T20:03:57.240Z,98562.44
2019-03-25T20:06:27.173Z,98567.94
2019-03-25T20:08:57.252Z,98570.08
2019-03-25T20:11:27.312Z,98577.17
2019-03-25T20:13:57.494Z,98581.45
2019-03-25T20:16:27.541Z,98582.85
2019-03-25T20:18:57.850Z,98582.34
2019-03-25T20:21:28.190Z,98579.97
2019-03-25T20:23:58.218Z,98584.01
2019-03-25T20:26:28.218Z,98591.50
2019-03-25T20:28:58.213Z,98593.83
2019-03-25T20:31:28.140Z,98590.91
2019-03-25T20:34:10.309Z,98598.14
2019-03-25T20:36:30.138Z,98603.33
2019-03-25T20:39:00.169Z,98592.36
2019-03-25T20:41:30.336Z,98597.48
2019-03-25T20:44:00.480Z,98593.22
2019-03-25T20:46:30.508Z,98603.75
2019-03-25T20:49:00.678Z,98604.34
2019-03-25T20:51:30.914Z,98615.23
2019-03-25T20:54:00.907Z,98620.02
2019-03-25T20:56:30.916Z,98627.67
2019-03-25T20:59:00.921Z,98624.35
2019-03-25T21:01:30.861Z,98622.63
2019-03-25T21:04:01.187Z,98631.95
2019-03-25T21:06:31.099Z,98630.61
2019-03-25T21:09:01.232Z,98632.38
2019-03-25T21:11:31.789Z,98635.17
2019-03-25T21:14:01.858Z,98634.39
2019-03-25T21:16:31.786Z,98638.69
2019-03-25T21:19:02.037Z,98637.63
2019-03-25T21:21:32.092Z,98637.84
2019-03-25T21:24:02.145Z,98643.38
2019-03-25T21:26:32.150Z,98641.92
2019-03-25T21:29:02.326Z,98657.63
2019-03-25T21:31:32.446Z,98651.45
2019-03-25T21:34:03.073Z,98655.46
2019-03-25T21:36:33.207Z,98649.92
2019-03-25T21:39:03.793Z,98657.87
2019-03-25T21:41:33.885Z,98653.28
2019-03-25T21:44:04.105Z,98652.85
2019-03-25T21:46:34.410Z,98661.95
2019-03-25T21:49:04.624Z,98665.39
2019-03-25T21:51:34.618Z,98668.27
2019-03-25T21:54:04.896Z,98677.75
2019-03-25T21:56:34.812Z,98679.63
2019-03-25T21:59:04.894Z,98680.44
2019-03-25T22:01:35.087Z,98689.87
2019-03-25T22:04:05.116Z,98695.08
2019-03-25T22:06:35.355Z,98693.70
2019-03-25T22:09:07.795Z,98695.77
2019-03-25T22:11:37.953Z,98699.65
2019-03-25T22:14:08.203Z,98703.09
2019-03-25T22:16:38.406Z,98709.52
2019-03-25T22:19:08.463Z,98709.60
2019-03-25T22:21:38.437Z,98708.83
2019-03-25T22:24:08.558Z,98711.10
2019-03-25T22:26:38.791Z,98705.55
2019-03-25T22:29:08.899Z,98714.02
2019-03-25T22:31:40.484Z,98716.42
2019-03-25T22:34:10.572Z,98716.80
2019-03-25T22:36:40.524Z,98713.89
2019-03-25T22:39:10.521Z,98714.81
2019-03-25T22:41:40.574Z,98714.44
2019-03-25T22:44:10.641Z,98719.25
2019-03-25T22:46:40.573Z,98718.05
2019-03-25T22:49:10.715Z,98722.01
2019-03-25T22:51:43.599Z,98724.16
2019-03-25T22:54:13.706Z,98727.43
2019-03-25T22:56:43.693Z,98730.58
2019-03-25T22:59:14.043Z,98737.98
2019-03-25T23:01:44.045Z,98741.33
2019-03-25T23:04:14.200Z,98741.63
2019-03-25T23:06:44.190Z,98738.67
2019-03-25T23:09:14.304Z,98741.73
2019-03-25T23:11:44.248Z,98752.94
2019-03-25T23:14:15.467Z,98757.80
2019-03-25T23:16:46.893Z,98753.13
2019-03-25T23:19:18.052Z,98754.03
2019-03-25T23:21:49.660Z,98757.19
2019-03-25T23:24:20.760Z,98757.63
2019-03-25T23:26:52.253Z,98754.80
2019-03-25T23:29:23.288Z,98759.45
2019-03-25T23:31:54.509Z,98759.33
2019-03-25T23:34:25.777Z,98774.12
2019-03-25T23:36:56.848Z,98778.88
2019-03-25T23:39:27.823Z,98781.19
2019-03-25T23:41:59.029Z,98778.35
2019-03-25T23:44:30.115Z,98788.67
2019-03-25T23:47:01.639Z,98794.88
2019-03-25T23:49:33.088Z,98799.84
2019-03-25T23:52:04.793Z,98801.59
2019-03-25T23:54:34.700Z,98811.00
2019-03-25T23:57:04.850Z,98816.62
2019-03-25T23:59:34.828Z,98817.02
